createdAt,value
2023-04-15T00:01:19.815Z,10.59
2023-04-15T00:03:48.981Z,10.57
2023-04-15T00:06:18.012Z,10.56
2023-04-15T00:08:47.775Z,10.58
2023-04-15T00:11:18.479Z,10.53
2023-04-15T00:13:47.197Z,10.55
2023-04-15T00:16:15.959Z,10.50
2023-04-15T00:18:44.635Z,10.50
2023-04-15T00:21:13.375Z,10.49
2023-04-15T00:23:42.060Z,10.51
2023-04-15T00:26:10.787Z,10.53
2023-04-15T00:28:39.516Z,10.57
2023-04-15T00:31:08.258Z,10.58
2023-04-15T00:33:37.067Z,10.65
2023-04-15T00:36:08.766Z,10.69
2023-04-15T00:38:39.472Z,10.68
2023-04-15T00:41:09.281Z,10.67
2023-04-15T00:43:38.419Z,10.60
2023-04-15T00:46:07.805Z,10.60
2023-04-15T00:48:37.424Z,10.62
2023-04-15T00:51:07.350Z,10.61
2023-04-15T00:53:36.119Z,10.56
2023-04-15T00:56:05.591Z,10.51
2023-04-15T00:58:34.700Z,10.38
2023-04-15T01:01:04.618Z,10.34
2023-04-15T01:03:33.521Z,10.21
2023-04-15T01:06:04.145Z,10.04
2023-04-15T01:08:33.163Z,9.91
2023-04-15T01:11:03.844Z,9.84
2023-04-15T01:13:34.680Z,9.75
2023-04-15T01:16:03.552Z,9.65
2023-04-15T01:18:32.935Z,9.55
2023-04-15T01:21:04.969Z,9.50
2023-04-15T01:23:40.285Z,9.43
2023-04-15T01:26:12.242Z,9.43
2023-04-15T01:28:41.165Z,9.27
2023-04-15T01:31:13.833Z,9.26
2023-04-15T01:33:43.820Z,9.20
2023-04-15T01:36:12.466Z,9.10
2023-04-15T01:38:41.419Z,9.08
2023-04-15T01:41:10.145Z,9.04
2023-04-15T01:43:38.866Z,8.99
2023-04-15T01:46:07.578Z,8.96
2023-04-15T01:48:36.277Z,8.98
2023-04-15T01:51:05.863Z,8.99
2023-04-15T01:53:34.698Z,8.97
2023-04-15T01:56:04.523Z,9.00
2023-04-15T01:58:33.469Z,9.04
2023-04-15T02:01:03.241Z,9.06
2023-04-15T02:03:34.249Z,9.08
2023-04-15T02:06:03.021Z,9.11
2023-04-15T02:08:31.851Z,9.13
2023-04-15T02:11:01.400Z,9.16
2023-04-15T02:13:31.059Z,9.19
2023-04-15T02:16:04.060Z,9.16
2023-04-15T02:18:32.897Z,9.18
2023-04-15T02:21:01.744Z,9.17
2023-04-15T02:23:30.482Z,9.19
2023-04-15T02:26:00.132Z,9.20
2023-04-15T02:28:28.848Z,9.21
2023-04-15T02:30:59.388Z,9.26
2023-04-15T02:33:28.237Z,9.29
2023-04-15T02:35:56.901Z,9.33
2023-04-15T02:38:25.789Z,9.34
2023-04-15T02:40:54.791Z,9.35
2023-04-15T02:43:23.973Z,9.37
2023-04-15T02:45:53.434Z,9.37
2023-04-15T02:48:22.364Z,9.37
2023-04-15T02:50:51.956Z,9.41
2023-04-15T02:53:21.168Z,9.35
2023-04-15T02:55:49.788Z,9.38
2023-04-15T02:58:18.500Z,9.38
2023-04-15T03:00:47.197Z,9.32
2023-04-15T03:03:16.150Z,9.34
2023-04-15T03:05:45.147Z,9.42
2023-04-15T03:08:15.134Z,9.47
2023-04-15T03:10:43.803Z,9.49
2023-04-15T03:13:12.528Z,9.54
2023-04-15T03:15:42.355Z,9.61
2023-04-15T03:18:11.638Z,9.62
2023-04-15T03:20:42.245Z,9.61
2023-04-15T03:23:11.299Z,9.63
2023-04-15T03:25:40.837Z,9.66
2023-04-15T03:28:10.413Z,9.68
2023-04-15T03:30:39.176Z,9.66
2023-04-15T03:33:08.753Z,9.69
2023-04-15T03:35:38.416Z,9.70
2023-04-15T03:38:07.290Z,9.72
2023-04-15T03:40:36.056Z,9.75
2023-04-15T03:43:04.790Z,9.77
2023-04-15T03:45:33.844Z,9.75
2023-04-15T03:50:34.105Z,9.74
2023-04-15T03:53:02.838Z,9.77
2023-04-15T03:55:31.859Z,9.80
2023-04-15T03:58:00.523Z,9.81
2023-04-15T04:00:29.290Z,9.83
2023-04-15T04:02:58.204Z,9.86
2023-04-15T04:05:26.984Z,9.91
2023-04-15T04:07:55.711Z,9.95
2023-04-15T04:10:24.441Z,9.99
2023-04-15T04:12:53.122Z,10.01
2023-04-15T04:15:21.862Z,10.06
2023-04-15T04:17:51.073Z,10.07
2023-04-15T04:20:19.811Z,10.08
2023-04-15T04:22:48.578Z,10.09
2023-04-15T04:25:17.788Z,10.09
2023-04-15T04:27:46.591Z,10.11
2023-04-15T04:30:15.257Z,10.14
2023-04-15T04:32:43.999Z,10.17
2023-04-15T04:35:12.949Z,10.17
2023-04-15T04:37:41.640Z,10.20
2023-04-15T04:40:11.056Z,10.15
2023-04-15T04:42:40.156Z,10.16
2023-04-15T04:45:09.666Z,10.16
2023-04-15T04:47:38.402Z,10.22
2023-04-15T04:50:09.298Z,10.24
2023-04-15T04:52:38.584Z,10.29
2023-04-15T04:55:08.790Z,10.31
2023-04-15T04:57:39.643Z,10.33
2023-04-15T05:00:09.285Z,10.43
2023-04-15T05:02:38.248Z,10.50
2023-04-15T05:05:08.084Z,10.55
2023-04-15T05:07:36.942Z,10.56
2023-04-15T05:10:06.831Z,10.67
2023-04-15T05:12:37.697Z,10.84
2023-04-15T05:15:07.643Z,11.03
2023-04-15T05:17:36.498Z,11.16
2023-04-15T05:20:05.885Z,11.31
2023-04-15T05:22:34.673Z,11.42
2023-04-15T05:25:03.634Z,11.39
2023-04-15T05:27:32.450Z,11.56
2023-04-15T05:30:01.353Z,11.60
2023-04-15T05:32:30.091Z,11.58
2023-04-15T05:34:58.925Z,11.66
2023-04-15T05:37:27.617Z,11.71
2023-04-15T05:39:56.958Z,11.74
2023-04-15T05:42:25.835Z,11.78
2023-04-15T05:44:54.516Z,11.81
2023-04-15T05:47:23.394Z,11.82
2023-04-15T05:49:52.500Z,11.75
2023-04-15T05:52:21.488Z,11.71
2023-04-15T05:54:50.196Z,11.56
2023-04-15T05:57:18.901Z,11.50
2023-04-15T05:59:47.805Z,11.48
2023-04-15T06:02:16.603Z,11.48
2023-04-15T06:04:45.642Z,11.62
2023-04-15T06:07:14.546Z,11.58
2023-04-15T06:09:43.256Z,11.77
2023-04-15T06:12:13.360Z,11.93
2023-04-15T06:14:42.150Z,11.99
2023-04-15T06:17:11.019Z,11.95
2023-04-15T06:19:39.856Z,11.88
2023-04-15T06:22:09.398Z,11.94
2023-04-15T06:24:38.134Z,11.90
2023-04-15T06:27:06.787Z,11.79
2023-04-15T06:29:35.800Z,11.78
2023-04-15T06:32:04.520Z,11.92
2023-04-15T06:34:33.334Z,12.09
2023-04-15T06:37:02.973Z,12.28
2023-04-15T06:39:33.767Z,12.38
2023-04-15T06:42:03.609Z,12.30
2023-04-15T06:44:33.788Z,12.30
2023-04-15T06:47:03.002Z,12.32
2023-04-15T06:49:32.058Z,12.42
2023-04-15T06:52:01.842Z,12.57
2023-04-15T06:54:30.590Z,12.61
2023-04-15T06:56:59.255Z,12.78
2023-04-15T06:59:27.918Z,12.89
2023-04-15T07:01:56.885Z,12.93
2023-04-15T07:04:26.161Z,12.97
2023-04-15T07:06:55.823Z,13.17
2023-04-15T07:09:24.970Z,13.16
2023-04-15T07:11:53.730Z,13.24
2023-04-15T07:14:22.879Z,13.29
2023-04-15T07:16:51.803Z,13.47
2023-04-15T07:19:20.608Z,13.65
2023-04-15T07:21:49.876Z,13.77
2023-04-15T07:24:20.284Z,13.85
2023-04-15T07:26:49.530Z,13.88
2023-04-15T07:29:18.658Z,13.93
2023-04-15T07:31:47.539Z,13.78
2023-04-15T07:34:16.892Z,13.52
2023-04-15T07:36:46.212Z,13.62
2023-04-15T07:39:15.002Z,13.63
2023-04-15T07:41:43.944Z,13.68
2023-04-15T07:44:12.825Z,13.65
2023-04-15T07:46:41.661Z,13.44
2023-04-15T07:49:10.386Z,13.45
2023-04-15T07:51:39.227Z,13.37
2023-04-15T07:54:07.966Z,13.39
2023-04-15T07:56:36.792Z,13.49
2023-04-15T07:59:06.731Z,13.33
2023-04-15T08:01:35.959Z,13.31
2023-04-15T08:04:07.569Z,13.22
2023-04-15T08:06:40.157Z,13.31
2023-04-15T08:09:09.283Z,13.34
2023-04-15T08:11:38.389Z,13.33
2023-04-15T08:14:07.163Z,13.29
2023-04-15T08:16:36.336Z,13.25
2023-04-15T08:19:05.767Z,13.17
2023-04-15T08:21:34.841Z,13.14
2023-04-15T08:24:03.948Z,13.20
2023-04-15T08:26:32.994Z,13.15
2023-04-15T08:29:02.018Z,13.21
2023-04-15T08:31:31.242Z,13.38
2023-04-15T08:34:04.594Z,13.40
2023-04-15T08:36:34.218Z,13.32
2023-04-15T08:39:05.131Z,13.23
2023-04-15T08:42:02.768Z,13.36
2023-04-15T08:44:37.036Z,13.42
2023-04-15T08:47:09.422Z,13.37
2023-04-15T08:49:41.528Z,13.35
2023-04-15T08:52:10.649Z,13.31
2023-04-15T08:54:40.243Z,13.45
2023-04-15T08:57:09.572Z,13.45
2023-04-15T08:59:38.662Z,13.39
2023-04-15T09:02:10.098Z,13.22
2023-04-15T09:04:42.790Z,13.20
2023-04-15T09:07:12.583Z,13.30
2023-04-15T09:09:50.591Z,13.31
2023-04-15T09:12:26.707Z,13.36
2023-04-15T09:14:58.887Z,13.37
2023-04-15T09:17:28.084Z,13.45
2023-04-15T09:20:16.901Z,13.32
2023-04-15T09:22:49.070Z,13.38
2023-04-15T09:25:31.089Z,13.36
2023-04-15T09:28:02.965Z,13.22
2023-04-15T09:30:32.032Z,13.24
2023-04-15T09:33:05.127Z,13.14
2023-04-15T09:35:35.786Z,13.16
2023-04-15T09:38:10.189Z,13.32
2023-04-15T09:40:43.452Z,13.40
2023-04-15T09:43:17.985Z,13.41
2023-04-15T09:45:54.087Z,13.39
2023-04-15T09:48:27.447Z,13.45
2023-04-15T09:51:00.717Z,13.50
2023-04-15T09:53:31.854Z,13.74
2023-04-15T09:56:02.906Z,13.77
2023-04-15T09:58:35.899Z,13.94
2023-04-15T10:01:06.537Z,13.99
2023-04-15T10:03:37.801Z,14.36
2023-04-15T10:06:07.292Z,14.26
2023-04-15T10:08:35.979Z,14.11
2023-04-15T10:11:07.181Z,14.16
2023-04-15T10:13:39.149Z,14.11
2023-04-15T10:16:15.434Z,14.05
2023-04-15T10:18:47.232Z,13.96
2023-04-15T10:21:18.901Z,13.85
2023-04-15T10:23:48.475Z,13.74
2023-04-15T10:26:17.926Z,13.74
2023-04-15T10:28:48.482Z,13.66
2023-04-15T10:31:18.628Z,13.68
2023-04-15T10:33:48.928Z,13.66
2023-04-15T10:36:20.063Z,13.56
2023-04-15T10:38:48.772Z,13.64
2023-04-15T10:41:31.446Z,13.63
2023-04-15T10:44:01.402Z,13.57
2023-04-15T10:46:40.263Z,13.50
2023-04-15T10:49:24.648Z,13.48
2023-04-15T10:51:59.313Z,13.42
2023-04-15T10:54:28.106Z,13.32
2023-04-15T10:57:08.801Z,13.34
2023-04-15T11:00:01.300Z,13.23
2023-04-15T11:02:57.682Z,13.20
2023-04-15T11:05:41.762Z,13.38
2023-04-15T11:08:14.010Z,13.42
2023-04-15T11:10:42.631Z,13.51
2023-04-15T11:13:11.297Z,13.53
2023-04-15T11:15:42.087Z,13.69
2023-04-15T11:18:15.102Z,13.87
2023-04-15T11:20:54.961Z,14.05
2023-04-15T11:23:32.311Z,14.01
2023-04-15T11:26:05.738Z,14.08
2023-04-15T11:28:34.805Z,14.21
2023-04-15T11:31:10.861Z,14.35
2023-04-15T11:33:57.190Z,14.48
2023-04-15T11:36:35.038Z,14.67
2023-04-15T11:39:07.772Z,15.01
2023-04-15T11:41:36.658Z,15.78
2023-04-15T11:44:18.176Z,16.64
2023-04-15T11:46:46.957Z,17.18
2023-04-15T11:49:31.497Z,17.72
2023-04-15T11:52:01.353Z,17.79
2023-04-15T11:54:30.486Z,18.02
2023-04-15T11:57:00.405Z,18.42
2023-04-15T11:59:45.796Z,18.59
2023-04-15T12:02:14.996Z,18.66
2023-04-15T12:04:44.215Z,19.07
2023-04-15T12:07:13.133Z,18.29
2023-04-15T12:09:42.708Z,18.07
2023-04-15T12:12:12.661Z,18.64
2023-04-15T12:14:42.472Z,19.05
2023-04-15T12:17:11.709Z,19.05
2023-04-15T12:19:43.390Z,18.45
2023-04-15T12:22:15.910Z,18.87
2023-04-15T12:24:48.149Z,18.84
2023-04-15T12:27:17.987Z,19.19
2023-04-15T12:29:46.791Z,19.76
2023-04-15T12:32:23.004Z,20.14
2023-04-15T12:34:53.480Z,20.30
2023-04-15T12:37:22.426Z,19.49
2023-04-15T12:39:52.537Z,19.22
2023-04-15T12:42:22.783Z,19.43
2023-04-15T12:44:51.545Z,19.42
2023-04-15T12:47:20.431Z,19.29
2023-04-15T12:49:49.835Z,19.08
2023-04-15T12:52:18.709Z,19.11
2023-04-15T12:54:47.393Z,19.44
2023-04-15T12:57:16.336Z,19.98
2023-04-15T12:59:45.787Z,19.86
2023-04-15T13:02:14.625Z,19.14
2023-04-15T13:04:43.666Z,19.13
2023-04-15T13:10:39.465Z,19.48
2023-04-15T13:13:08.982Z,20.22
2023-04-15T13:15:38.533Z,20.47
2023-04-15T13:18:07.986Z,20.57
2023-04-15T13:20:36.877Z,21.18
2023-04-15T13:23:05.789Z,21.82
2023-04-15T13:25:34.695Z,21.42
2023-04-15T13:28:03.760Z,21.25
2023-04-15T13:30:32.600Z,22.04
2023-04-15T13:33:01.556Z,22.36
2023-04-15T13:35:30.594Z,22.86
2023-04-15T13:37:59.526Z,22.21
2023-04-15T13:40:28.757Z,22.01
2023-04-15T13:42:58.952Z,22.20
2023-04-15T13:45:27.771Z,22.40
2023-04-15T13:48:00.287Z,22.31
2023-04-15T13:50:29.691Z,22.66
2023-04-15T13:52:58.547Z,22.85
2023-04-15T13:55:28.501Z,22.70
2023-04-15T13:57:58.052Z,22.89
2023-04-15T14:00:27.168Z,22.78
2023-04-15T14:02:56.030Z,23.18
2023-04-15T14:05:25.222Z,23.17
2023-04-15T14:07:54.282Z,22.44
2023-04-15T14:10:23.102Z,22.00
2023-04-15T14:12:51.999Z,22.68
2023-04-15T14:15:21.605Z,23.46
2023-04-15T14:17:50.437Z,23.66
2023-04-15T14:20:19.293Z,22.12
2023-04-15T14:22:48.182Z,21.44
2023-04-15T14:25:30.461Z,21.26
2023-04-15T14:28:03.687Z,22.00
2023-04-15T14:30:32.561Z,22.31
2023-04-15T14:33:02.076Z,22.84
2023-04-15T14:35:31.354Z,23.55
2023-04-15T14:38:00.178Z,23.33
2023-04-15T14:40:28.904Z,23.18
2023-04-15T14:42:57.633Z,23.25
2023-04-15T14:45:26.381Z,23.33
2023-04-15T14:47:55.200Z,23.69
2023-04-15T14:50:24.076Z,23.17
2023-04-15T14:52:52.821Z,23.43
2023-04-15T14:55:21.616Z,23.99
2023-04-15T14:57:50.418Z,24.17
2023-04-15T15:00:19.343Z,24.03
2023-04-15T15:02:48.291Z,23.54
2023-04-15T15:05:17.191Z,23.82
2023-04-15T15:07:46.124Z,23.69
2023-04-15T15:10:14.943Z,23.76
2023-04-15T15:12:43.708Z,23.88
2023-04-15T15:15:25.110Z,24.43
2023-04-15T15:17:57.357Z,24.03
2023-04-15T15:20:26.928Z,23.78
2023-04-15T15:22:56.856Z,23.48
2023-04-15T15:25:26.247Z,23.60
2023-04-15T15:27:55.074Z,23.08
2023-04-15T15:30:23.881Z,22.68
2023-04-15T15:32:52.657Z,23.01
2023-04-15T15:35:23.139Z,22.61
2023-04-15T15:37:52.641Z,22.20
2023-04-15T15:40:21.717Z,21.70
2023-04-15T15:42:51.095Z,21.94
2023-04-15T15:45:19.852Z,22.07
2023-04-15T15:47:48.840Z,21.84
2023-04-15T15:50:17.633Z,20.94
2023-04-15T15:52:46.289Z,20.89
2023-04-15T15:55:15.079Z,20.96
2023-04-15T15:57:43.848Z,20.93
2023-04-15T16:00:13.431Z,20.98
2023-04-15T16:05:14.443Z,20.18
2023-04-15T16:07:43.283Z,19.97
2023-04-15T16:10:14.296Z,20.48
2023-04-15T16:12:44.936Z,20.58
2023-04-15T16:15:14.082Z,20.14
2023-04-15T16:17:43.333Z,20.02
2023-04-15T16:20:12.099Z,19.37
2023-04-15T16:22:40.898Z,18.69
2023-04-15T16:25:10.719Z,18.18
2023-04-15T16:30:12.761Z,17.37
2023-04-15T16:32:41.716Z,16.88
2023-04-15T16:35:11.768Z,16.64
2023-04-15T16:37:40.513Z,16.29
